sensor_id;sensor_type;location;lat;lon;timestamp;P1;durP1;ratioP1;P2;durP2;ratioP2
52564;SDS011;38460;53.106;7.004;2022-07-23T00:00:05;8.63;;;3.38;;
52564;SDS011;38460;53.106;7.004;2022-07-23T00:02:31;7.50;;;3.42;;
52564;SDS011;38460;53.106;7.004;2022-07-23T00:04:57;5.32;;;3.58;;
52564;SDS011;38460;53.106;7.004;2022-07-23T00:07:23;7.57;;;3.67;;
52564;SDS011;38460;53.106;7.004;2022-07-23T00:09:48;5.68;;;3.33;;
52564;SDS011;38460;53.106;7.004;2022-07-23T00:12:14;6.13;;;3.33;;
52564;SDS011;38460;53.106;7.004;2022-07-23T00:14:40;5.57;;;3.67;;
52564;SDS011;38460;53.106;7.004;2022-07-23T00:17:05;5.88;;;3.85;;
52564;SDS011;38460;53.106;7.004;2022-07-23T00:19:31;7.03;;;3.22;;
52564;SDS011;38460;53.106;7.004;2022-07-23T00:21:57;5.63;;;3.33;;
52564;SDS011;38460;53.106;7.004;2022-07-23T00:24:23;6.85;;;3.90;;
52564;SDS011;38460;53.106;7.004;2022-07-23T00:26:48;4.32;;;3.30;;
52564;SDS011;38460;53.106;7.004;2022-07-23T00:29:14;6.60;;;3.78;;
52564;SDS011;38460;53.106;7.004;2022-07-23T00:31:40;7.38;;;3.92;;
52564;SDS011;38460;53.106;7.004;2022-07-23T00:34:06;5.10;;;3.35;;
52564;SDS011;38460;53.106;7.004;2022-07-23T00:36:32;6.15;;;3.38;;
52564;SDS011;38460;53.106;7.004;2022-07-23T00:38:58;7.88;;;3.33;;
52564;SDS011;38460;53.106;7.004;2022-07-23T00:41:23;6.47;;;3.95;;
52564;SDS011;38460;53.106;7.004;2022-07-23T00:43:49;9.05;;;3.85;;
52564;SDS011;38460;53.106;7.004;2022-07-23T00:46:21;5.60;;;3.58;;
52564;SDS011;38460;53.106;7.004;2022-07-23T00:48:47;6.10;;;3.75;;
52564;SDS011;38460;53.106;7.004;2022-07-23T00:51:16;5.78;;;3.40;;
52564;SDS011;38460;53.106;7.004;2022-07-23T00:53:43;5.25;;;3.42;;
52564;SDS011;38460;53.106;7.004;2022-07-23T00:56:09;5.75;;;3.17;;
52564;SDS011;38460;53.106;7.004;2022-07-23T00:58:36;6.57;;;3.17;;
52564;SDS011;38460;53.106;7.004;2022-07-23T01:01:03;5.75;;;3.35;;
52564;SDS011;38460;53.106;7.004;2022-07-23T01:03:29;6.50;;;3.80;;
52564;SDS011;38460;53.106;7.004;2022-07-23T01:05:55;6.47;;;3.63;;
52564;SDS011;38460;53.106;7.004;2022-07-23T01:08:21;5.10;;;3.20;;
52564;SDS011;38460;53.106;7.004;2022-07-23T01:10:48;6.18;;;4.18;;
52564;SDS011;38460;53.106;7.004;2022-07-23T01:13:16;8.23;;;3.88;;
52564;SDS011;38460;53.106;7.004;2022-07-23T01:15:41;7.25;;;3.70;;
52564;SDS011;38460;53.106;7.004;2022-07-23T01:18:08;6.78;;;3.25;;
52564;SDS011;38460;53.106;7.004;2022-07-23T01:20:34;6.15;;;3.75;;
52564;SDS011;38460;53.106;7.004;2022-07-23T01:23:00;5.30;;;3.20;;
52564;SDS011;38460;53.106;7.004;2022-07-23T01:25:26;4.97;;;3.75;;
52564;SDS011;38460;53.106;7.004;2022-07-23T01:27:52;7.40;;;3.60;;
52564;SDS011;38460;53.106;7.004;2022-07-23T01:30:19;8.23;;;3.80;;
52564;SDS011;38460;53.106;7.004;2022-07-23T01:32:45;6.43;;;3.30;;
52564;SDS011;38460;53.106;7.004;2022-07-23T01:35:11;6.13;;;3.28;;
52564;SDS011;38460;53.106;7.004;2022-07-23T01:37:37;7.35;;;3.90;;
52564;SDS011;38460;53.106;7.004;2022-07-23T01:40:03;6.68;;;3.80;;
52564;SDS011;38460;53.106;7.004;2022-07-23T01:42:30;6.00;;;3.20;;
52564;SDS011;38460;53.106;7.004;2022-07-23T01:44:56;6.22;;;3.75;;
52564;SDS011;38460;53.106;7.004;2022-07-23T01:47:22;6.28;;;3.53;;
52564;SDS011;38460;53.106;7.004;2022-07-23T01:49:47;5.85;;;3.28;;
52564;SDS011;38460;53.106;7.004;2022-07-23T01:52:13;6.03;;;4.00;;
52564;SDS011;38460;53.106;7.004;2022-07-23T01:54:39;8.90;;;4.30;;
52564;SDS011;38460;53.106;7.004;2022-07-23T01:57:05;5.78;;;3.40;;
52564;SDS011;38460;53.106;7.004;2022-07-23T01:59:32;4.57;;;3.40;;
52564;SDS011;38460;53.106;7.004;2022-07-23T02:01:57;5.15;;;3.72;;
52564;SDS011;38460;53.106;7.004;2022-07-23T02:04:24;5.93;;;3.88;;
52564;SDS011;38460;53.106;7.004;2022-07-23T02:06:50;6.88;;;3.88;;
52564;SDS011;38460;53.106;7.004;2022-07-23T02:09:16;6.30;;;3.55;;
52564;SDS011;38460;53.106;7.004;2022-07-23T02:11:43;7.65;;;3.90;;
52564;SDS011;38460;53.106;7.004;2022-07-23T02:14:09;6.15;;;3.83;;
52564;SDS011;38460;53.106;7.004;2022-07-23T02:16:34;5.53;;;3.60;;
52564;SDS011;38460;53.106;7.004;2022-07-23T02:19:00;8.45;;;3.63;;
52564;SDS011;38460;53.106;7.004;2022-07-23T02:21:26;7.10;;;3.75;;
52564;SDS011;38460;53.106;7.004;2022-07-23T02:23:52;5.38;;;3.92;;
52564;SDS011;38460;53.106;7.004;2022-07-23T02:26:18;6.85;;;4.03;;
52564;SDS011;38460;53.106;7.004;2022-07-23T02:28:43;4.95;;;3.78;;
52564;SDS011;38460;53.106;7.004;2022-07-23T02:31:09;7.43;;;4.45;;
52564;SDS011;38460;53.106;7.004;2022-07-23T02:33:35;4.97;;;3.67;;
52564;SDS011;38460;53.106;7.004;2022-07-23T02:36:00;5.88;;;3.63;;
52564;SDS011;38460;53.106;7.004;2022-07-23T02:38:26;7.47;;;3.72;;
52564;SDS011;38460;53.106;7.004;2022-07-23T02:40:52;6.32;;;4.10;;
52564;SDS011;38460;53.106;7.004;2022-07-23T02:43:17;5.18;;;4.03;;
52564;SDS011;38460;53.106;7.004;2022-07-23T02:45:43;7.75;;;3.83;;
52564;SDS011;38460;53.106;7.004;2022-07-23T02:48:09;6.80;;;4.25;;
52564;SDS011;38460;53.106;7.004;2022-07-23T02:50:37;6.45;;;3.90;;
52564;SDS011;38460;53.106;7.004;2022-07-23T02:53:03;5.72;;;3.97;;
52564;SDS011;38460;53.106;7.004;2022-07-23T02:55:29;7.20;;;4.05;;
52564;SDS011;38460;53.106;7.004;2022-07-23T02:57:56;6.03;;;3.83;;
52564;SDS011;38460;53.106;7.004;2022-07-23T03:00:22;5.45;;;3.50;;
52564;SDS011;38460;53.106;7.004;2022-07-23T03:02:48;5.25;;;3.95;;
52564;SDS011;38460;53.106;7.004;2022-07-23T03:05:14;8.13;;;4.47;;
52564;SDS011;38460;53.106;7.004;2022-07-23T03:07:39;6.57;;;4.28;;
52564;SDS011;38460;53.106;7.004;2022-07-23T03:10:05;7.18;;;3.72;;
52564;SDS011;38460;53.106;7.004;2022-07-23T03:12:31;6.25;;;4.47;;
52564;SDS011;38460;53.106;7.004;2022-07-23T03:14:57;6.13;;;4.30;;
52564;SDS011;38460;53.106;7.004;2022-07-23T03:17:23;5.80;;;4.40;;
52564;SDS011;38460;53.106;7.004;2022-07-23T03:19:48;8.18;;;5.00;;
52564;SDS011;38460;53.106;7.004;2022-07-23T03:22:14;7.60;;;4.00;;
52564;SDS011;38460;53.106;7.004;2022-07-23T03:24:40;9.23;;;4.65;;
52564;SDS011;38460;53.106;7.004;2022-07-23T03:27:21;8.15;;;4.82;;
52564;SDS011;38460;53.106;7.004;2022-07-23T03:29:49;7.93;;;4.47;;
52564;SDS011;38460;53.106;7.004;2022-07-23T03:32:16;5.75;;;4.07;;
52564;SDS011;38460;53.106;7.004;2022-07-23T03:34:42;7.88;;;4.70;;
52564;SDS011;38460;53.106;7.004;2022-07-23T03:37:08;5.97;;;4.68;;
52564;SDS011;38460;53.106;7.004;2022-07-23T03:39:33;9.77;;;4.57;;
52564;SDS011;38460;53.106;7.004;2022-07-23T03:41:59;8.48;;;5.05;;
52564;SDS011;38460;53.106;7.004;2022-07-23T03:44:25;7.95;;;4.55;;
52564;SDS011;38460;53.106;7.004;2022-07-23T03:46:51;6.82;;;4.30;;
52564;SDS011;38460;53.106;7.004;2022-07-23T03:49:17;7.38;;;4.50;;
52564;SDS011;38460;53.106;7.004;2022-07-23T03:51:42;7.13;;;4.20;;
52564;SDS011;38460;53.106;7.004;2022-07-23T03:54:08;7.70;;;4.57;;
52564;SDS011;38460;53.106;7.004;2022-07-23T03:56:34;9.55;;;4.78;;
52564;SDS011;38460;53.106;7.004;2022-07-23T03:59:00;6.65;;;4.50;;
52564;SDS011;38460;53.106;7.004;2022-07-23T04:01:26;8.00;;;5.32;;
52564;SDS011;38460;53.106;7.004;2022-07-23T04:03:51;7.72;;;5.03;;
52564;SDS011;38460;53.106;7.004;2022-07-23T04:06:17;8.18;;;5.00;;
52564;SDS011;38460;53.106;7.004;2022-07-23T04:08:43;8.18;;;4.50;;
52564;SDS011;38460;53.106;7.004;2022-07-23T04:11:09;7.57;;;4.95;;
52564;SDS011;38460;53.106;7.004;2022-07-23T04:13:34;7.95;;;4.72;;
52564;SDS011;38460;53.106;7.004;2022-07-23T04:16:00;7.75;;;4.78;;
52564;SDS011;38460;53.106;7.004;2022-07-23T04:18:26;7.97;;;4.95;;
52564;SDS011;38460;53.106;7.004;2022-07-23T04:20:52;7.10;;;4.80;;
52564;SDS011;38460;53.106;7.004;2022-07-23T04:23:18;8.82;;;4.93;;
52564;SDS011;38460;53.106;7.004;2022-07-23T04:25:44;6.25;;;4.30;;
52564;SDS011;38460;53.106;7.004;2022-07-23T04:28:09;7.90;;;4.65;;
52564;SDS011;38460;53.106;7.004;2022-07-23T04:30:35;6.18;;;4.57;;
52564;SDS011;38460;53.106;7.004;2022-07-23T04:33:01;7.45;;;5.35;;
52564;SDS011;38460;53.106;7.004;2022-07-23T04:35:30;8.23;;;5.38;;
52564;SDS011;38460;53.106;7.004;2022-07-23T04:37:56;7.63;;;4.72;;
52564;SDS011;38460;53.106;7.004;2022-07-23T04:40:22;9.55;;;5.15;;
52564;SDS011;38460;53.106;7.004;2022-07-23T04:42:47;6.18;;;4.53;;
52564;SDS011;38460;53.106;7.004;2022-07-23T04:45:13;9.18;;;4.65;;
52564;SDS011;38460;53.106;7.004;2022-07-23T04:47:39;9.07;;;4.55;;
52564;SDS011;38460;53.106;7.004;2022-07-23T04:50:04;8.43;;;5.10;;
52564;SDS011;38460;53.106;7.004;2022-07-23T04:52:30;7.07;;;4.57;;
52564;SDS011;38460;53.106;7.004;2022-07-23T04:54:56;6.93;;;4.68;;
52564;SDS011;38460;53.106;7.004;2022-07-23T04:57:22;8.75;;;4.82;;
52564;SDS011;38460;53.106;7.004;2022-07-23T04:59:48;9.38;;;5.25;;
52564;SDS011;38460;53.106;7.004;2022-07-23T05:02:13;9.52;;;5.07;;
52564;SDS011;38460;53.106;7.004;2022-07-23T05:04:39;7.90;;;4.85;;
52564;SDS011;38460;53.106;7.004;2022-07-23T05:07:05;9.05;;;5.53;;
52564;SDS011;38460;53.106;7.004;2022-07-23T05:09:31;8.80;;;5.10;;
52564;SDS011;38460;53.106;7.004;2022-07-23T05:11:57;7.85;;;5.57;;
52564;SDS011;38460;53.106;7.004;2022-07-23T05:14:23;8.27;;;4.80;;
52564;SDS011;38460;53.106;7.004;2022-07-23T05:16:48;8.82;;;4.80;;
52564;SDS011;38460;53.106;7.004;2022-07-23T05:19:14;9.40;;;5.25;;
52564;SDS011;38460;53.106;7.004;2022-07-23T05:21:40;8.38;;;5.13;;
52564;SDS011;38460;53.106;7.004;2022-07-23T05:24:05;12.10;;;5.68;;
52564;SDS011;38460;53.106;7.004;2022-07-23T05:26:31;8.40;;;5.10;;
52564;SDS011;38460;53.106;7.004;2022-07-23T05:28:57;10.18;;;5.05;;
52564;SDS011;38460;53.106;7.004;2022-07-23T05:31:23;8.65;;;5.28;;
52564;SDS011;38460;53.106;7.004;2022-07-23T05:33:49;10.15;;;5.10;;
52564;SDS011;38460;53.106;7.004;2022-07-23T05:36:15;8.85;;;5.68;;
52564;SDS011;38460;53.106;7.004;2022-07-23T05:38:41;8.13;;;5.35;;
52564;SDS011;38460;53.106;7.004;2022-07-23T05:41:06;9.45;;;5.53;;
52564;SDS011;38460;53.106;7.004;2022-07-23T05:43:32;10.70;;;5.07;;
52564;SDS011;38460;53.106;7.004;2022-07-23T05:45:58;10.38;;;5.25;;
52564;SDS011;38460;53.106;7.004;2022-07-23T05:48:23;10.50;;;5.03;;
52564;SDS011;38460;53.106;7.004;2022-07-23T05:50:49;9.95;;;5.07;;
52564;SDS011;38460;53.106;7.004;2022-07-23T05:53:15;11.02;;;5.43;;
52564;SDS011;38460;53.106;7.004;2022-07-23T05:55:40;7.53;;;4.20;;
52564;SDS011;38460;53.106;7.004;2022-07-23T05:58:06;9.02;;;4.75;;
52564;SDS011;38460;53.106;7.004;2022-07-23T06:00:33;6.10;;;4.38;;
52564;SDS011;38460;53.106;7.004;2022-07-23T06:02:59;6.97;;;4.32;;
52564;SDS011;38460;53.106;7.004;2022-07-23T06:05:25;7.28;;;4.40;;
52564;SDS011;38460;53.106;7.004;2022-07-23T06:07:51;6.78;;;4.10;;
52564;SDS011;38460;53.106;7.004;2022-07-23T06:10:18;7.38;;;4.25;;
52564;SDS011;38460;53.106;7.004;2022-07-23T06:12:44;4.78;;;3.50;;
52564;SDS011;38460;53.106;7.004;2022-07-23T06:15:09;8.77;;;3.95;;
52564;SDS011;38460;53.106;7.004;2022-07-23T06:17:36;8.05;;;3.65;;
52564;SDS011;38460;53.106;7.004;2022-07-23T06:20:04;6.05;;;4.00;;
52564;SDS011;38460;53.106;7.004;2022-07-23T06:22:31;4.13;;;3.15;;
52564;SDS011;38460;53.106;7.004;2022-07-23T06:24:57;6.55;;;3.47;;
52564;SDS011;38460;53.106;7.004;2022-07-23T06:27:22;5.13;;;3.00;;
52564;SDS011;38460;53.106;7.004;2022-07-23T06:29:48;5.82;;;3.42;;
52564;SDS011;38460;53.106;7.004;2022-07-23T06:32:14;6.75;;;3.20;;
52564;SDS011;38460;53.106;7.004;2022-07-23T06:34:39;9.40;;;3.95;;
52564;SDS011;38460;53.106;7.004;2022-07-23T06:37:05;7.30;;;2.80;;
52564;SDS011;38460;53.106;7.004;2022-07-23T06:39:31;3.70;;;2.80;;
52564;SDS011;38460;53.106;7.004;2022-07-23T06:41:57;6.15;;;2.92;;
52564;SDS011;38460;53.106;7.004;2022-07-23T06:44:22;4.22;;;2.88;;
52564;SDS011;38460;53.106;7.004;2022-07-23T06:46:48;4.07;;;2.17;;
52564;SDS011;38460;53.106;7.004;2022-07-23T06:49:14;4.13;;;2.72;;
52564;SDS011;38460;53.106;7.004;2022-07-23T06:51:40;4.03;;;2.67;;
52564;SDS011;38460;53.106;7.004;2022-07-23T06:54:05;6.30;;;2.60;;
52564;SDS011;38460;53.106;7.004;2022-07-23T06:56:31;2.47;;;1.83;;
52564;SDS011;38460;53.106;7.004;2022-07-23T06:58:57;6.20;;;2.58;;
52564;SDS011;38460;53.106;7.004;2022-07-23T07:01:23;7.10;;;3.08;;
52564;SDS011;38460;53.106;7.004;2022-07-23T07:03:48;5.10;;;2.90;;
52564;SDS011;38460;53.106;7.004;2022-07-23T07:06:14;5.20;;;2.65;;
52564;SDS011;38460;53.106;7.004;2022-07-23T07:08:40;5.35;;;2.30;;
52564;SDS011;38460;53.106;7.004;2022-07-23T07:11:08;6.93;;;2.40;;
52564;SDS011;38460;53.106;7.004;2022-07-23T07:13:33;3.72;;;1.85;;
52564;SDS011;38460;53.106;7.004;2022-07-23T07:15:59;3.33;;;2.10;;
52564;SDS011;38460;53.106;7.004;2022-07-23T07:18:25;5.88;;;2.60;;
52564;SDS011;38460;53.106;7.004;2022-07-23T07:20:51;6.22;;;2.00;;
52564;SDS011;38460;53.106;7.004;2022-07-23T07:23:17;5.50;;;2.22;;
52564;SDS011;38460;53.106;7.004;2022-07-23T07:25:43;2.95;;;1.95;;
52564;SDS011;38460;53.106;7.004;2022-07-23T07:28:08;3.88;;;2.15;;
52564;SDS011;38460;53.106;7.004;2022-07-23T07:30:34;3.40;;;1.70;;
52564;SDS011;38460;53.106;7.004;2022-07-23T07:33:00;6.18;;;1.60;;
52564;SDS011;38460;53.106;7.004;2022-07-23T07:35:25;4.90;;;1.77;;
52564;SDS011;38460;53.106;7.004;2022-07-23T07:37:51;4.28;;;1.83;;
52564;SDS011;38460;53.106;7.004;2022-07-23T07:40:17;3.58;;;1.90;;
52564;SDS011;38460;53.106;7.004;2022-07-23T07:42:45;3.40;;;1.40;;
52564;SDS011;38460;53.106;7.004;2022-07-23T07:45:11;3.72;;;1.30;;
52564;SDS011;38460;53.106;7.004;2022-07-23T07:47:37;2.45;;;1.10;;
52564;SDS011;38460;53.106;7.004;2022-07-23T07:50:03;3.20;;;1.15;;
52564;SDS011;38460;53.106;7.004;2022-07-23T07:52:29;2.80;;;1.25;;
52564;SDS011;38460;53.106;7.004;2022-07-23T07:54:55;6.88;;;2.58;;
52564;SDS011;38460;53.106;7.004;2022-07-23T07:57:20;6.35;;;1.33;;
52564;SDS011;38460;53.106;7.004;2022-07-23T07:59:46;2.38;;;1.30;;
52564;SDS011;38460;53.106;7.004;2022-07-23T08:02:12;1.55;;;1.00;;
52564;SDS011;38460;53.106;7.004;2022-07-23T08:04:37;1.63;;;0.90;;
52564;SDS011;38460;53.106;7.004;2022-07-23T08:07:03;2.70;;;0.90;;
52564;SDS011;38460;53.106;7.004;2022-07-23T08:09:29;2.80;;;1.42;;
52564;SDS011;38460;53.106;7.004;2022-07-23T08:11:54;2.13;;;1.10;;
52564;SDS011;38460;53.106;7.004;2022-07-23T08:14:20;3.50;;;0.93;;
52564;SDS011;38460;53.106;7.004;2022-07-23T08:16:46;2.40;;;0.70;;
52564;SDS011;38460;53.106;7.004;2022-07-23T08:19:12;1.42;;;0.70;;
52564;SDS011;38460;53.106;7.004;2022-07-23T08:21:38;1.95;;;0.90;;
52564;SDS011;38460;53.106;7.004;2022-07-23T08:24:03;1.48;;;0.77;;
52564;SDS011;38460;53.106;7.004;2022-07-23T08:26:29;1.52;;;0.93;;
52564;SDS011;38460;53.106;7.004;2022-07-23T08:28:55;2.63;;;0.80;;
52564;SDS011;38460;53.106;7.004;2022-07-23T08:31:23;1.65;;;0.90;;
52564;SDS011;38460;53.106;7.004;2022-07-23T08:33:49;2.28;;;0.70;;
52564;SDS011;38460;53.106;7.004;2022-07-23T08:36:15;0.95;;;0.75;;
52564;SDS011;38460;53.106;7.004;2022-07-23T08:38:41;2.38;;;1.00;;
52564;SDS011;38460;53.106;7.004;2022-07-23T08:41:08;4.72;;;1.00;;
52564;SDS011;38460;53.106;7.004;2022-07-23T08:43:34;1.85;;;0.95;;
52564;SDS011;38460;53.106;7.004;2022-07-23T08:46:01;2.42;;;0.93;;
52564;SDS011;38460;53.106;7.004;2022-07-23T08:48:31;2.10;;;0.73;;
52564;SDS011;38460;53.106;7.004;2022-07-23T08:50:58;2.38;;;0.90;;
52564;SDS011;38460;53.106;7.004;2022-07-23T08:53:26;3.15;;;0.88;;
52564;SDS011;38460;53.106;7.004;2022-07-23T08:55:54;3.10;;;0.80;;
52564;SDS011;38460;53.106;7.004;2022-07-23T08:58:21;3.38;;;1.10;;
52564;SDS011;38460;53.106;7.004;2022-07-23T09:00:48;2.05;;;0.77;;
52564;SDS011;38460;53.106;7.004;2022-07-23T09:03:18;1.02;;;0.70;;
52564;SDS011;38460;53.106;7.004;2022-07-23T09:05:51;1.52;;;0.88;;
52564;SDS011;38460;53.106;7.004;2022-07-23T09:08:33;2.30;;;0.90;;
52564;SDS011;38460;53.106;7.004;2022-07-23T09:11:04;1.55;;;0.70;;
52564;SDS011;38460;53.106;7.004;2022-07-23T09:13:50;1.83;;;0.77;;
52564;SDS011;38460;53.106;7.004;2022-07-23T09:16:19;0.98;;;0.60;;
52564;SDS011;38460;53.106;7.004;2022-07-23T09:21:21;0.98;;;0.77;;
52564;SDS011;38460;53.106;7.004;2022-07-23T09:28:52;1.45;;;0.90;;
52564;SDS011;38460;53.106;7.004;2022-07-23T09:31:22;2.92;;;1.10;;
52564;SDS011;38460;53.106;7.004;2022-07-23T09:33:48;1.75;;;0.90;;
52564;SDS011;38460;53.106;7.004;2022-07-23T09:36:14;0.98;;;0.73;;
52564;SDS011;38460;53.106;7.004;2022-07-23T09:38:49;2.72;;;1.00;;
52564;SDS011;38460;53.106;7.004;2022-07-23T09:41:16;2.25;;;1.00;;
52564;SDS011;38460;53.106;7.004;2022-07-23T09:43:42;2.08;;;0.70;;
52564;SDS011;38460;53.106;7.004;2022-07-23T09:46:18;2.53;;;1.00;;
52564;SDS011;38460;53.106;7.004;2022-07-23T09:48:53;2.28;;;0.95;;
52564;SDS011;38460;53.106;7.004;2022-07-23T09:51:21;3.75;;;1.45;;
52564;SDS011;38460;53.106;7.004;2022-07-23T09:53:57;2.95;;;1.02;;
52564;SDS011;38460;53.106;7.004;2022-07-23T09:56:23;2.30;;;1.00;;
52564;SDS011;38460;53.106;7.004;2022-07-23T09:58:50;1.38;;;0.95;;
52564;SDS011;38460;53.106;7.004;2022-07-23T10:01:17;2.13;;;0.90;;
52564;SDS011;38460;53.106;7.004;2022-07-23T10:03:45;1.83;;;0.80;;
52564;SDS011;38460;53.106;7.004;2022-07-23T10:06:12;3.00;;;1.02;;
52564;SDS011;38460;53.106;7.004;2022-07-23T10:08:40;2.78;;;1.20;;
52564;SDS011;38460;53.106;7.004;2022-07-23T10:11:07;4.28;;;1.10;;
52564;SDS011;38460;53.106;7.004;2022-07-23T10:13:36;2.25;;;1.25;;
52564;SDS011;38460;53.106;7.004;2022-07-23T10:16:20;1.63;;;0.98;;
52564;SDS011;38460;53.106;7.004;2022-07-23T10:18:46;1.30;;;0.90;;
52564;SDS011;38460;53.106;7.004;2022-07-23T10:21:15;1.48;;;1.00;;
52564;SDS011;38460;53.106;7.004;2022-07-23T10:24:04;2.20;;;0.90;;
52564;SDS011;38460;53.106;7.004;2022-07-23T10:29:52;1.95;;;0.80;;
52564;SDS011;38460;53.106;7.004;2022-07-23T10:32:26;1.98;;;0.90;;
52564;SDS011;38460;53.106;7.004;2022-07-23T10:37:54;1.30;;;0.80;;
52564;SDS011;38460;53.106;7.004;2022-07-23T10:40:25;5.47;;;1.05;;
52564;SDS011;38460;53.106;7.004;2022-07-23T10:42:51;2.28;;;0.85;;
52564;SDS011;38460;53.106;7.004;2022-07-23T10:47:49;6.65;;;1.42;;
52564;SDS011;38460;53.106;7.004;2022-07-23T10:50:23;1.58;;;0.80;;
52564;SDS011;38460;53.106;7.004;2022-07-23T10:58:00;2.17;;;1.13;;
52564;SDS011;38460;53.106;7.004;2022-07-23T11:00:31;2.58;;;1.00;;
52564;SDS011;38460;53.106;7.004;2022-07-23T11:02:58;3.55;;;1.15;;
52564;SDS011;38460;53.106;7.004;2022-07-23T11:05:26;3.72;;;1.38;;
52564;SDS011;38460;53.106;7.004;2022-07-23T11:10:33;2.55;;;1.00;;
52564;SDS011;38460;53.106;7.004;2022-07-23T11:26:57;2.45;;;1.10;;
52564;SDS011;38460;53.106;7.004;2022-07-23T11:37:03;3.80;;;1.60;;
52564;SDS011;38460;53.106;7.004;2022-07-23T11:39:33;1.95;;;1.10;;
52564;SDS011;38460;53.106;7.004;2022-07-23T11:41:59;3.88;;;1.52;;
52564;SDS011;38460;53.106;7.004;2022-07-23T11:44:27;3.83;;;1.30;;
52564;SDS011;38460;53.106;7.004;2022-07-23T11:49:25;2.65;;;1.30;;
52564;SDS011;38460;53.106;7.004;2022-07-23T11:52:10;2.30;;;1.40;;
52564;SDS011;38460;53.106;7.004;2022-07-23T11:57:38;3.25;;;1.25;;
52564;SDS011;38460;53.106;7.004;2022-07-23T12:00:08;1.63;;;1.08;;
52564;SDS011;38460;53.106;7.004;2022-07-23T12:05:03;1.75;;;1.13;;
52564;SDS011;38460;53.106;7.004;2022-07-23T12:07:34;3.50;;;1.63;;
52564;SDS011;38460;53.106;7.004;2022-07-23T12:10:09;3.10;;;1.30;;
52564;SDS011;38460;53.106;7.004;2022-07-23T12:12:36;2.38;;;1.50;;
52564;SDS011;38460;53.106;7.004;2022-07-23T12:15:06;3.80;;;1.65;;
52564;SDS011;38460;53.106;7.004;2022-07-23T12:17:34;2.42;;;1.20;;
52564;SDS011;38460;53.106;7.004;2022-07-23T12:20:06;3.08;;;1.10;;
52564;SDS011;38460;53.106;7.004;2022-07-23T12:25:03;2.10;;;1.40;;
52564;SDS011;38460;53.106;7.004;2022-07-23T12:27:32;4.18;;;1.38;;
52564;SDS011;38460;53.106;7.004;2022-07-23T12:29:59;3.05;;;1.40;;
52564;SDS011;38460;53.106;7.004;2022-07-23T12:32:42;3.05;;;1.20;;
52564;SDS011;38460;53.106;7.004;2022-07-23T12:35:09;2.47;;;1.10;;
52564;SDS011;38460;53.106;7.004;2022-07-23T12:37:36;5.20;;;1.48;;
52564;SDS011;38460;53.106;7.004;2022-07-23T12:43:25;3.45;;;1.25;;
52564;SDS011;38460;53.106;7.004;2022-07-23T12:45:56;2.97;;;1.40;;
52564;SDS011;38460;53.106;7.004;2022-07-23T12:48:40;3.42;;;1.48;;
52564;SDS011;38460;53.106;7.004;2022-07-23T12:51:20;4.20;;;1.40;;
52564;SDS011;38460;53.106;7.004;2022-07-23T12:53:50;2.65;;;1.30;;
52564;SDS011;38460;53.106;7.004;2022-07-23T13:06:24;2.45;;;1.23;;
52564;SDS011;38460;53.106;7.004;2022-07-23T13:08:51;2.85;;;1.40;;
52564;SDS011;38460;53.106;7.004;2022-07-23T13:11:17;2.00;;;1.40;;
52564;SDS011;38460;53.106;7.004;2022-07-23T13:13:43;3.55;;;1.40;;
52564;SDS011;38460;53.106;7.004;2022-07-23T13:16:08;1.83;;;1.40;;
52564;SDS011;38460;53.106;7.004;2022-07-23T13:18:34;2.28;;;1.40;;
52564;SDS011;38460;53.106;7.004;2022-07-23T13:21:00;2.38;;;1.27;;
52564;SDS011;38460;53.106;7.004;2022-07-23T13:23:26;4.28;;;1.50;;
52564;SDS011;38460;53.106;7.004;2022-07-23T13:25:52;5.88;;;1.45;;
52564;SDS011;38460;53.106;7.004;2022-07-23T13:28:18;3.17;;;1.45;;
52564;SDS011;38460;53.106;7.004;2022-07-23T13:30:46;5.68;;;1.50;;
52564;SDS011;38460;53.106;7.004;2022-07-23T13:33:14;2.95;;;1.42;;
52564;SDS011;38460;53.106;7.004;2022-07-23T13:35:44;2.45;;;1.40;;
52564;SDS011;38460;53.106;7.004;2022-07-23T13:38:10;2.78;;;1.63;;
52564;SDS011;38460;53.106;7.004;2022-07-23T13:40:41;4.10;;;1.48;;
52564;SDS011;38460;53.106;7.004;2022-07-23T13:43:09;2.30;;;1.40;;
52564;SDS011;38460;53.106;7.004;2022-07-23T13:45:36;2.45;;;1.40;;
52564;SDS011;38460;53.106;7.004;2022-07-23T13:48:03;2.80;;;1.40;;
52564;SDS011;38460;53.106;7.004;2022-07-23T13:50:29;2.42;;;1.33;;
52564;SDS011;38460;53.106;7.004;2022-07-23T13:52:55;2.88;;;1.40;;
52564;SDS011;38460;53.106;7.004;2022-07-23T13:55:21;3.38;;;1.48;;
52564;SDS011;38460;53.106;7.004;2022-07-23T13:57:47;3.58;;;1.50;;
52564;SDS011;38460;53.106;7.004;2022-07-23T14:00:13;2.70;;;1.42;;
52564;SDS011;38460;53.106;7.004;2022-07-23T14:02:39;3.03;;;1.50;;
52564;SDS011;38460;53.106;7.004;2022-07-23T14:05:06;2.53;;;1.48;;
52564;SDS011;38460;53.106;7.004;2022-07-23T14:07:34;1.88;;;1.30;;
52564;SDS011;38460;53.106;7.004;2022-07-23T14:10:02;2.20;;;1.30;;
52564;SDS011;38460;53.106;7.004;2022-07-23T14:12:29;3.38;;;1.50;;
52564;SDS011;38460;53.106;7.004;2022-07-23T14:14:55;4.53;;;1.20;;
52564;SDS011;38460;53.106;7.004;2022-07-23T14:17:21;2.38;;;1.40;;
52564;SDS011;38460;53.106;7.004;2022-07-23T14:19:47;4.20;;;1.40;;
52564;SDS011;38460;53.106;7.004;2022-07-23T14:22:13;2.88;;;1.50;;
52564;SDS011;38460;53.106;7.004;2022-07-23T14:24:39;4.25;;;1.33;;
52564;SDS011;38460;53.106;7.004;2022-07-23T14:27:05;2.00;;;1.23;;
52564;SDS011;38460;53.106;7.004;2022-07-23T14:29:31;3.40;;;1.30;;
52564;SDS011;38460;53.106;7.004;2022-07-23T14:31:58;2.38;;;1.30;;
52564;SDS011;38460;53.106;7.004;2022-07-23T14:34:24;4.28;;;1.30;;
52564;SDS011;38460;53.106;7.004;2022-07-23T14:36:51;2.38;;;0.90;;
52564;SDS011;38460;53.106;7.004;2022-07-23T14:39:17;1.85;;;1.30;;
52564;SDS011;38460;53.106;7.004;2022-07-23T14:41:43;2.88;;;1.40;;
52564;SDS011;38460;53.106;7.004;2022-07-23T14:44:09;3.65;;;1.35;;
52564;SDS011;38460;53.106;7.004;2022-07-23T14:46:35;2.30;;;1.20;;
52564;SDS011;38460;53.106;7.004;2022-07-23T14:49:01;2.67;;;1.35;;
52564;SDS011;38460;53.106;7.004;2022-07-23T14:51:27;2.00;;;1.00;;
52564;SDS011;38460;53.106;7.004;2022-07-23T14:53:53;1.83;;;1.02;;
52564;SDS011;38460;53.106;7.004;2022-07-23T14:56:19;2.60;;;1.30;;
52564;SDS011;38460;53.106;7.004;2022-07-23T14:58:45;4.25;;;1.52;;
52564;SDS011;38460;53.106;7.004;2022-07-23T15:01:11;1.75;;;0.93;;
52564;SDS011;38460;53.106;7.004;2022-07-23T15:03:36;2.67;;;1.27;;
52564;SDS011;38460;53.106;7.004;2022-07-23T15:06:03;3.05;;;1.50;;
52564;SDS011;38460;53.106;7.004;2022-07-23T15:08:29;5.75;;;1.80;;
52564;SDS011;38460;53.106;7.004;2022-07-23T15:10:54;2.50;;;1.50;;
52564;SDS011;38460;53.106;7.004;2022-07-23T15:13:20;3.72;;;1.33;;
52564;SDS011;38460;53.106;7.004;2022-07-23T15:15:46;2.78;;;1.27;;
52564;SDS011;38460;53.106;7.004;2022-07-23T15:18:12;2.78;;;1.25;;
52564;SDS011;38460;53.106;7.004;2022-07-23T15:20:37;1.80;;;1.10;;
52564;SDS011;38460;53.106;7.004;2022-07-23T15:23:06;3.00;;;1.23;;
52564;SDS011;38460;53.106;7.004;2022-07-23T15:25:32;3.53;;;1.00;;
52564;SDS011;38460;53.106;7.004;2022-07-23T15:27:58;2.75;;;1.23;;
52564;SDS011;38460;53.106;7.004;2022-07-23T15:30:24;3.08;;;1.42;;
52564;SDS011;38460;53.106;7.004;2022-07-23T15:32:51;2.22;;;1.20;;
52564;SDS011;38460;53.106;7.004;2022-07-23T15:35:18;2.05;;;1.35;;
52564;SDS011;38460;53.106;7.004;2022-07-23T15:37:44;2.40;;;1.48;;
52564;SDS011;38460;53.106;7.004;2022-07-23T15:40:11;3.30;;;1.20;;
52564;SDS011;38460;53.106;7.004;2022-07-23T15:42:37;2.50;;;1.30;;
52564;SDS011;38460;53.106;7.004;2022-07-23T15:45:03;2.70;;;1.27;;
52564;SDS011;38460;53.106;7.004;2022-07-23T15:47:30;2.42;;;1.20;;
52564;SDS011;38460;53.106;7.004;2022-07-23T15:49:56;2.15;;;1.23;;
52564;SDS011;38460;53.106;7.004;2022-07-23T15:52:21;2.25;;;1.20;;
52564;SDS011;38460;53.106;7.004;2022-07-23T15:54:47;3.05;;;1.45;;